Time;durP1;ratioP1;P1;durP2;ratioP2;P2;SDS_P1;SDS_P2;PMS_P1;PMS_P2;Temp;Humidity;BMP_temperature;BMP_pressure;BME280_temperature;BME280_humidity;BME280_pressure;Samples;Min_cycle;Max_cycle;Signal;HPM_P1;HPM_P2
2022/10/24 00:01:32;;;;;;;28.05;26.95;;;12.40;91.90;;;;;;5087586;28;20059;-81
2022/10/24 00:03:58;;;;;;;26.35;25.35;;;12.40;91.90;;;;;;5086476;28;20040;-81
2022/10/24 00:06:23;;;;;;;27.35;26.25;;;12.40;91.90;;;;;;5089810;28;20487;-81
2022/10/24 00:08:51;;;;;;;26.20;25.20;;;12.30;91.90;;;;;;5091698;28;20060;-81
2022/10/24 00:11:21;;;;;;;26.38;25.38;;;12.30;91.90;;;;;;5091574;28;20426;-81
2022/10/24 00:13:46;;;;;;;29.10;28.00;;;12.30;91.90;;;;;;5092150;28;20056;-81
2022/10/24 00:16:12;;;;;;;26.75;25.73;;;12.20;91.90;;;;;;5091728;28;20066;-81
2022/10/24 00:18:39;;;;;;;21.83;20.92;;;12.20;91.90;;;;;;5091538;28;20093;-81
2022/10/24 00:21:05;;;;;;;;;;;12.20;91.90;;;;;;5091936;28;20221;-81
2022/10/24 00:23:31;;;;;;;27.45;26.35;;;12.20;91.90;;;;;;5073263;28;20007;-77
2022/10/24 00:26:00;;;;;;;26.70;25.70;;;12.20;91.90;;;;;;5091122;28;20048;-77
2022/10/24 00:28:27;;;;;;;24.73;23.73;;;12.20;91.90;;;;;;5090298;28;20077;-77
2022/10/24 00:30:53;;;;;;;26.45;25.45;;;12.20;91.90;;;;;;5091376;28;20379;-77
2022/10/24 00:33:19;;;;;;;25.10;24.10;;;12.20;91.90;;;;;;5090115;28;20020;-77
2022/10/24 00:35:45;;;;;;;26.05;25.05;;;12.20;91.90;;;;;;5091184;28;20036;-77
2022/10/24 00:38:11;;;;;;;;;;;12.20;91.90;;;;;;5090290;28;20029;-76
2022/10/24 00:40:36;;;;;;;26.50;25.50;;;12.10;91.90;;;;;;5091118;28;19915;-76
2022/10/24 00:43:02;;;;;;;27.27;26.17;;;12.10;91.80;;;;;;5090911;28;20028;-76
2022/10/24 00:45:40;;;;;;;29.13;28.02;;;12.10;91.80;;;;;;5089553;28;20507;-76
2022/10/24 00:48:35;;;;;;;26.60;25.60;;;12.10;91.90;;;;;;5090900;28;20421;-75
2022/10/24 00:51:12;;;;;;;27.20;26.10;;;12.10;91.90;;;;;;5089458;28;20043;-79
2022/10/24 00:53:43;;;;;;;27.27;26.17;;;12.10;91.90;;;;;;5091136;28;20036;-74
2022/10/24 00:56:12;;;;;;;26.70;25.65;;;12.00;91.80;;;;;;5090982;28;20020;-74
2022/10/24 00:58:39;;;;;;;29.02;27.92;;;12.00;91.90;;;;;;5089458;28;20032;-74
2022/10/24 01:01:05;;;;;;;30.08;28.88;;;12.00;91.90;;;;;;5089532;28;20397;-74
2022/10/24 01:03:31;;;;;;;29.08;27.98;;;12.00;91.90;;;;;;5089688;28;20028;-74
2022/10/24 01:06:04;;;;;;;29.42;28.33;;;12.00;91.90;;;;;;5091100;28;20120;-74
2022/10/24 01:08:36;;;;;;;29.88;28.70;;;12.00;91.90;;;;;;5090792;28;20024;-74
2022/10/24 01:11:41;;;;;;;29.90;28.73;;;12.00;91.90;;;;;;5089257;28;20027;-74
2022/10/24 01:14:48;;;;;;;29.60;28.50;;;11.90;91.90;;;;;;5090760;28;20034;-74
2022/10/24 01:17:28;;;;;;;30.08;28.88;;;11.90;91.90;;;;;;5088421;28;20032;-77
2022/10/24 01:20:28;;;;;;;30.23;29.02;;;11.90;91.90;;;;;;5090625;28;20020;-77
2022/10/24 01:23:06;;;;;;;29.40;28.30;;;11.90;91.90;;;;;;5090404;28;20032;-77
2022/10/24 01:25:42;;;;;;;29.98;28.77;;;11.90;91.90;;;;;;5089972;28;20040;-77
2022/10/24 01:28:45;;;;;;;29.80;28.63;;;11.90;91.90;;;;;;5089437;28;20245;-77
2022/10/24 01:31:30;;;;;;;28.50;27.40;;;11.90;91.90;;;;;;5077486;28;20754;-77
2022/10/24 01:34:07;;;;;;;29.20;28.10;;;11.90;91.90;;;;;;5090245;28;20027;-77
2022/10/24 01:36:59;;;;;;;30.38;29.17;;;11.90;91.90;;;;;;5090065;28;20444;-77
2022/10/24 01:39:30;;;;;;;29.00;27.90;;;11.90;92.00;;;;;;5088908;28;20444;-77
2022/10/24 01:41:59;;;;;;;30.45;29.25;;;11.80;92.00;;;;;;5090054;28;20028;-77
2022/10/24 01:44:38;;;;;;;29.45;28.33;;;11.80;92.00;;;;;;5090017;28;20336;-77
2022/10/24 01:47:12;;;;;;;29.60;28.40;;;11.80;92.00;;;;;;5089854;28;20023;-77
2022/10/24 01:49:40;;;;;;;29.77;28.58;;;11.80;92.00;;;;;;5090023;28;20099;-77
2022/10/24 01:52:11;;;;;;;29.90;28.70;;;11.80;92.00;;;;;;5089750;28;20395;-77
2022/10/24 01:54:38;;;;;;;27.88;26.77;;;11.80;92.00;;;;;;5089670;28;20192;-77
2022/10/24 01:57:04;;;;;;;29.25;28.15;;;11.80;92.00;;;;;;5089575;28;20024;-77
2022/10/24 01:59:30;;;;;;;29.20;28.08;;;11.80;92.00;;;;;;5088317;28;20039;-77
2022/10/24 02:02:07;;;;;;;28.63;27.52;;;11.80;92.00;;;;;;5089622;28;20027;-77
2022/10/24 02:04:37;;;;;;;29.02;27.92;;;11.80;92.00;;;;;;5088226;28;20039;-77
2022/10/24 02:07:07;;;;;;;28.08;26.98;;;11.80;92.00;;;;;;5089439;28;20024;-77
2022/10/24 02:09:36;;;;;;;28.88;27.77;;;11.70;92.00;;;;;;5089968;28;20020;-77
2022/10/24 02:12:06;;;;;;;28.88;27.77;;;11.80;92.00;;;;;;5089401;28;20062;-77
2022/10/24 02:14:39;;;;;;;28.20;27.10;;;11.70;92.00;;;;;;5089334;28;20408;-77
2022/10/24 02:17:05;;;;;;;27.63;26.52;;;11.70;92.00;;;;;;5089480;28;20039;-77
2022/10/24 02:19:31;;;;;;;28.48;27.38;;;11.70;92.00;;;;;;5089449;28;20027;-77
2022/10/24 02:22:22;;;;;;;27.73;26.63;;;11.70;92.00;;;;;;5087836;28;20098;-77
2022/10/24 02:25:02;;;;;;;28.55;27.45;;;11.70;92.00;;;;;;5087558;28;20035;-77
2022/10/24 02:28:08;;;;;;;29.13;28.02;;;11.70;92.00;;;;;;5088611;28;20103;-77
2022/10/24 02:30:39;;;;;;;29.25;28.15;;;11.70;92.10;;;;;;5087734;28;20024;-77
2022/10/24 02:33:07;;;;;;;31.52;30.33;;;11.70;92.00;;;;;;5089027;28;20394;-77
2022/10/24 02:35:35;;;;;;;30.05;28.85;;;11.70;92.10;;;;;;5087641;28;20484;-76
2022/10/24 02:38:13;;;;;;;29.63;28.52;;;11.70;92.10;;;;;;5087469;28;20056;-76
2022/10/24 02:40:41;;;;;;;30.83;29.63;;;11.70;92.10;;;;;;5088513;28;20572;-75
2022/10/24 02:43:09;;;;;;;29.45;28.35;;;11.70;92.10;;;;;;5088745;28;20032;-75
2022/10/24 02:45:36;;;;;;;27.90;26.80;;;11.70;92.10;;;;;;5088622;28;20052;-76
2022/10/24 02:48:05;;;;;;;29.95;28.75;;;11.60;92.10;;;;;;5088625;28;20027;-76
2022/10/24 02:50:31;;;;;;;28.58;27.48;;;11.70;92.10;;;;;;5088549;28;20024;-76
2022/10/24 02:52:57;;;;;;;;;;;11.70;92.20;;;;;;5070913;28;20036;-76
2022/10/24 02:55:23;;;;;;;28.77;27.67;;;11.80;92.20;;;;;;5088505;28;20249;-75
2022/10/24 02:57:49;;;;;;;28.67;27.58;;;11.90;92.20;;;;;;5088638;28;20028;-76
2022/10/24 03:00:17;;;;;;;30.05;28.85;;;12.00;92.20;;;;;;5087282;28;20085;-75
2022/10/24 03:02:43;;;;;;;28.02;26.92;;;12.10;92.20;;;;;;5086979;28;20032;-75
2022/10/24 03:05:09;;;;;;;29.42;28.33;;;12.20;92.20;;;;;;5087248;28;20348;-76
2022/10/24 03:07:35;;;;;;;;;;;12.20;92.10;;;;;;5088866;28;20491;-76
2022/10/24 03:10:01;;;;;;;29.35;28.25;;;12.30;92.10;;;;;;5088201;28;19912;-75
2022/10/24 03:12:27;;;;;;;31.85;30.65;;;12.30;92.00;;;;;;5070147;28;20025;-75
2022/10/24 03:14:52;;;;;;;31.35;30.15;;;12.30;92.00;;;;;;5070219;28;20036;-82
2022/10/24 03:17:18;;;;;;;29.67;28.55;;;12.30;92.00;;;;;;5088302;28;20031;-74
2022/10/24 03:19:44;;;;;;;30.98;29.77;;;12.40;92.10;;;;;;5088169;28;20031;-74
2022/10/24 03:22:10;;;;;;;31.08;29.88;;;12.40;92.10;;;;;;5070003;28;20563;-74
2022/10/24 03:24:36;;;;;;;32.03;30.83;;;12.40;92.10;;;;;;5087760;28;20056;-74
2022/10/24 03:27:02;;;;;;;28.83;27.73;;;12.40;92.10;;;;;;5086822;28;20109;-74
2022/10/24 03:29:28;;;;;;;31.13;29.92;;;12.50;92.10;;;;;;5088114;28;20032;-74
2022/10/24 03:31:54;;;;;;;29.33;28.23;;;12.50;92.30;;;;;;5086759;28;20426;-74
2022/10/24 03:34:19;;;;;;;30.75;29.55;;;12.60;92.10;;;;;;5086853;28;20060;-74
2022/10/24 03:36:45;;;;;;;31.27;30.08;;;12.60;92.00;;;;;;5087956;28;20092;-74
2022/10/24 03:39:11;;;;;;;30.70;29.50;;;12.50;92.00;;;;;;5069119;28;20040;-74
2022/10/24 03:41:36;;;;;;;31.25;30.05;;;12.50;92.00;;;;;;5086535;28;20111;-73
2022/10/24 03:44:02;;;;;;;32.38;31.17;;;12.50;92.00;;;;;;5087705;28;20028;-73
2022/10/24 03:46:28;;;;;;;31.63;30.42;;;12.40;92.00;;;;;;5069389;28;20471;-73
2022/10/24 03:48:53;;;;;;;30.35;29.15;;;12.40;92.10;;;;;;5086468;28;20505;-73
2022/10/24 03:51:19;;;;;;;27.92;26.83;;;12.40;92.10;;;;;;5086349;28;20033;-73
2022/10/24 03:53:45;;;;;;;31.33;30.13;;;12.40;92.10;;;;;;5086201;28;20130;-73
2022/10/24 03:56:11;;;;;;;30.25;29.05;;;12.50;92.20;;;;;;5086244;28;20115;-76
2022/10/24 03:58:37;;;;;;;30.30;29.10;;;12.50;92.20;;;;;;5087509;28;20066;-74
2022/10/24 04:01:02;;;;;;;29.13;28.02;;;12.60;92.20;;;;;;5087271;28;20048;-75
2022/10/24 04:03:28;;;;;;;30.90;29.70;;;12.70;92.20;;;;;;5087422;28;20043;-74
2022/10/24 04:05:54;;;;;;;28.83;27.73;;;12.70;92.10;;;;;;5085861;28;20029;-74
2022/10/24 04:08:20;;;;;;;30.25;29.05;;;12.70;92.10;;;;;;5087432;28;20029;-73
2022/10/24 04:10:47;;;;;;;27.63;26.52;;;12.60;92.00;;;;;;5087796;28;20099;-73
2022/10/24 04:13:12;;;;;;;30.15;28.95;;;12.60;92.00;;;;;;5069421;28;20042;-73
2022/10/24 04:15:38;;;;;;;29.75;28.63;;;12.60;92.00;;;;;;5086268;28;20099;-76
2022/10/24 04:18:04;;;;;;;29.63;28.52;;;12.50;92.00;;;;;;5086192;28;20100;-76
2022/10/24 04:20:30;;;;;;;29.45;28.35;;;12.50;92.10;;;;;;5087284;28;20028;-76
2022/10/24 04:22:56;;;;;;;32.78;31.50;;;12.50;92.10;;;;;;5085949;28;20036;-76
2022/10/24 04:25:21;;;;;;;29.88;28.70;;;12.40;92.00;;;;;;5087138;28;20518;-76
2022/10/24 04:27:47;;;;;;;30.25;29.05;;;12.40;92.10;;;;;;5087209;28;20033;-76
2022/10/24 04:30:14;;;;;;;31.40;30.20;;;12.40;92.10;;;;;;5069216;28;20040;-76
2022/10/24 04:32:40;;;;;;;29.52;28.40;;;12.40;92.10;;;;;;5087179;28;20024;-75
2022/10/24 04:35:06;;;;;;;29.77;28.63;;;12.50;92.20;;;;;;5087338;28;20032;-73
2022/10/24 04:37:32;;;;;;;31.52;30.33;;;12.50;92.20;;;;;;5086029;28;20043;-73
2022/10/24 04:39:58;;;;;;;30.85;29.65;;;12.50;92.10;;;;;;5086099;28;20380;-73
2022/10/24 04:42:24;;;;;;;30.15;28.95;;;12.50;92.10;;;;;;5085853;28;20035;-73
2022/10/24 04:44:49;;;;;;;29.60;28.48;;;12.50;92.10;;;;;;5086003;28;20490;-73
2022/10/24 04:47:16;;;;;;;28.88;27.77;;;12.40;92.10;;;;;;5085840;28;20032;-77
2022/10/24 04:49:41;;;;;;;;;;;12.40;92.10;;;;;;5087663;28;20024;-73
2022/10/24 04:52:07;;;;;;;33.50;31.98;;;12.40;92.10;;;;;;5089916;28;19935;-74
2022/10/24 04:54:33;;;;;;;30.50;29.30;;;12.30;92.10;;;;;;5090821;28;20084;-74
2022/10/24 04:56:58;;;;;;;29.10;28.00;;;12.30;92.10;;;;;;5090659;28;20132;-75
2022/10/24 04:59:24;;;;;;;30.60;29.40;;;12.30;92.10;;;;;;5072536;28;20029;-74
2022/10/24 05:01:50;;;;;;;30.13;28.92;;;12.20;92.20;;;;;;5090591;28;20447;-74
2022/10/24 05:04:15;;;;;;;32.10;30.90;;;12.30;92.20;;;;;;5090631;28;20043;-74
2022/10/24 05:06:41;;;;;;;31.15;29.95;;;12.30;92.20;;;;;;5090416;28;20380;-75
2022/10/24 05:09:07;;;;;;;32.33;31.13;;;12.30;92.20;;;;;;5089266;28;20503;-75
2022/10/24 05:11:33;;;;;;;32.08;30.88;;;12.30;92.10;;;;;;5072249;28;20048;-75
2022/10/24 05:13:59;;;;;;;31.40;30.20;;;12.40;92.20;;;;;;5089280;28;20173;-76
2022/10/24 05:16:24;;;;;;;32.92;31.63;;;12.30;92.10;;;;;;5090566;28;20024;-76
2022/10/24 05:18:50;;;;;;;31.55;30.35;;;12.30;92.10;;;;;;5090304;28;20042;-77
2022/10/24 05:21:16;;;;;;;33.40;32.10;;;12.30;92.10;;;;;;5090164;28;20502;-76
2022/10/24 05:23:41;;;;;;;32.88;31.58;;;12.20;92.10;;;;;;5089083;28;20039;-75
2022/10/24 05:26:07;;;;;;;33.80;32.50;;;12.20;92.10;;;;;;5089918;28;20051;-75
2022/10/24 05:28:33;;;;;;;30.33;29.13;;;12.20;92.40;;;;;;5088911;28;20262;-76
2022/10/24 05:31:00;;;;;;;32.70;31.40;;;12.10;92.20;;;;;;5090134;28;20045;-75
2022/10/24 05:33:25;;;;;;;;;;;12.20;92.30;;;;;;5090304;28;20031;-75
2022/10/24 05:35:52;;;;;;;30.65;29.45;;;12.20;92.30;;;;;;5089941;28;19990;-75
2022/10/24 05:38:17;;;;;;;31.13;29.92;;;12.30;92.30;;;;;;5089731;28;20044;-75
2022/10/24 05:40:46;;;;;;;32.47;31.27;;;12.30;92.20;;;;;;5089693;28;20024;-75
2022/10/24 05:43:12;;;;;;;31.10;29.90;;;12.30;92.20;;;;;;5089869;28;20031;-75
2022/10/24 05:45:38;;;;;;;;;;;12.30;92.20;;;;;;5089057;28;20035;-75
2022/10/24 05:48:04;;;;;;;32.22;31.02;;;12.30;92.20;;;;;;5089808;28;20377;-75
2022/10/24 05:50:30;;;;;;;30.27;29.08;;;12.30;92.10;;;;;;5089605;28;20077;-75
2022/10/24 05:52:56;;;;;;;31.38;30.17;;;12.20;92.10;;;;;;5071158;28;20028;-75
2022/10/24 05:55:22;;;;;;;30.90;29.70;;;12.10;92.10;;;;;;5088021;28;20024;-75
2022/10/24 05:57:47;;;;;;;29.58;28.48;;;12.10;92.20;;;;;;5071170;28;20043;-75
2022/10/24 06:00:15;;;;;;;30.55;29.35;;;12.10;92.20;;;;;;5088249;28;20044;-75
2022/10/24 06:02:41;;;;;;;30.55;29.35;;;12.10;92.20;;;;;;5088369;28;20664;-76
2022/10/24 06:05:08;;;;;;;30.98;29.77;;;12.20;92.20;;;;;;5089411;28;20043;-76
2022/10/24 06:07:35;;;;;;;33.17;31.88;;;12.20;92.20;;;;;;5089273;28;20476;-75
2022/10/24 06:10:02;;;;;;;31.35;30.15;;;12.10;92.10;;;;;;5071104;28;20028;-75
2022/10/24 06:12:27;;;;;;;31.60;30.40;;;12.00;92.10;;;;;;5089182;28;20104;-75
2022/10/24 06:14:58;;;;;;;32.47;31.23;;;12.00;92.20;;;;;;5087927;28;20542;-74
2022/10/24 06:17:24;;;;;;;29.95;28.77;;;11.90;92.20;;;;;;5087764;28;20036;-75
2022/10/24 06:19:49;;;;;;;31.02;29.83;;;11.90;92.20;;;;;;5089137;28;20380;-80
2022/10/24 06:22:17;;;;;;;30.75;29.55;;;11.90;92.30;;;;;;5087904;28;20028;-81
2022/10/24 06:24:42;;;;;;;30.00;28.80;;;11.90;92.30;;;;;;5089161;28;20445;-80
2022/10/24 06:27:08;;;;;;;30.85;29.65;;;12.00;92.30;;;;;;5087448;28;20048;-81
2022/10/24 06:29:34;;;;;;;29.80;28.63;;;12.00;92.30;;;;;;5088292;28;20039;-82
2022/10/24 06:32:00;;;;;;;32.20;31.00;;;12.00;92.30;;;;;;5087678;28;20143;-81
2022/10/24 06:34:26;;;;;;;29.95;28.75;;;12.10;92.30;;;;;;5088853;28;20028;-81
2022/10/24 06:36:53;;;;;;;28.88;27.77;;;12.20;92.30;;;;;;5088312;28;20036;-74
2022/10/24 06:39:19;;;;;;;28.23;27.13;;;12.30;92.30;;;;;;5088224;28;20035;-78
2022/10/24 06:41:44;;;;;;;30.13;28.92;;;12.30;92.20;;;;;;5088168;28;20032;-81
2022/10/24 06:44:10;;;;;;;28.20;27.10;;;12.30;92.20;;;;;;5088462;28;20467;-76
2022/10/24 06:46:36;;;;;;;27.75;26.65;;;12.40;92.20;;;;;;5070354;28;20047;-77
2022/10/24 06:49:02;;;;;;;29.42;28.33;;;12.40;92.20;;;;;;5088362;28;20059;-76
2022/10/24 06:51:27;;;;;;;28.60;27.50;;;12.40;92.20;;;;;;5086876;28;20045;-77
2022/10/24 06:53:53;;;;;;;28.77;27.67;;;12.50;92.20;;;;;;5089526;28;20056;-78
2022/10/24 06:56:19;;;;;;;27.10;26.00;;;12.50;92.20;;;;;;5089853;28;20036;-76
2022/10/24 06:58:45;;;;;;;29.88;28.67;;;12.50;92.20;;;;;;5088374;28;20028;-76
2022/10/24 07:01:16;;;;;;;29.77;28.58;;;12.50;92.20;;;;;;5088830;28;20036;-76
2022/10/24 07:03:42;;;;;;;29.85;28.65;;;12.50;92.20;;;;;;5090113;28;20357;-77
2022/10/24 07:06:17;;;;;;;28.63;27.52;;;12.40;92.10;;;;;;5089835;28;20028;-76
2022/10/24 07:08:43;;;;;;;29.60;28.50;;;12.40;92.20;;;;;;5088355;28;20428;-77
2022/10/24 07:11:09;;;;;;;28.92;27.83;;;12.40;92.20;;;;;;5088740;28;20032;-77
2022/10/24 07:13:35;;;;;;;27.27;26.17;;;12.40;92.20;;;;;;5088478;28;20353;-77
2022/10/24 07:16:01;;;;;;;30.13;28.92;;;12.40;92.30;;;;;;5090933;28;20042;-73
2022/10/24 07:18:27;;;;;;;31.13;29.92;;;12.40;92.30;;;;;;5089077;28;20032;-75
2022/10/24 07:20:52;;;;;;;30.58;29.38;;;12.50;92.30;;;;;;5089952;28;20088;-75
2022/10/24 07:23:18;;;;;;;30.45;29.25;;;12.50;92.30;;;;;;5088366;28;20035;-78
2022/10/24 07:25:45;;;;;;;30.38;29.17;;;12.50;92.50;;;;;;5088058;28;20133;-76
2022/10/24 07:28:11;;;;;;;30.45;29.25;;;12.60;92.30;;;;;;5090080;28;20035;-78
2022/10/24 07:30:38;;;;;;;31.77;30.58;;;12.60;92.30;;;;;;5086723;28;20472;-78
2022/10/24 07:33:04;;;;;;;31.60;30.40;;;12.70;92.30;;;;;;5087668;28;20035;-77
2022/10/24 07:35:30;;;;;;;28.45;27.35;;;12.70;92.30;;;;;;5087653;28;20468;-77
2022/10/24 07:37:56;;;;;;;30.70;29.50;;;12.80;92.30;;;;;;5086130;28;20103;-77
2022/10/24 07:40:22;;;;;;;28.85;27.75;;;12.80;92.30;;;;;;5087022;28;20411;-77
2022/10/24 07:42:48;;;;;;;28.73;27.63;;;12.90;92.30;;;;;;5086646;28;20391;-75
2022/10/24 07:45:14;;;;;;;32.90;31.60;;;12.90;92.30;;;;;;5085651;28;20046;-78
2022/10/24 07:47:40;;;;;;;30.98;29.77;;;12.90;92.30;;;;;;5087200;28;20384;-76
2022/10/24 07:50:06;;;;;;;31.90;30.70;;;13.00;92.30;;;;;;5089738;28;20036;-75
2022/10/24 07:52:32;;;;;;;31.08;29.88;;;13.00;92.30;;;;;;5087194;28;20024;-75
2022/10/24 07:54:58;;;;;;;31.05;29.85;;;13.00;92.30;;;;;;5086662;28;20039;-76
2022/10/24 07:57:24;;;;;;;34.78;33.47;;;13.00;92.30;;;;;;5085311;28;20028;-76
2022/10/24 07:59:49;;;;;;;36.13;34.72;;;13.00;92.30;;;;;;5068886;28;20082;-76
2022/10/24 08:02:16;;;;;;;34.70;33.40;;;13.00;92.20;;;;;;5086885;28;20388;-77
2022/10/24 08:04:42;;;;;;;34.70;33.40;;;13.00;92.30;;;;;;5086702;28;20035;-77
2022/10/24 08:07:12;;;;;;;35.78;34.40;;;13.00;92.20;;;;;;5086956;28;20113;-75
2022/10/24 08:09:46;;;;;;;36.08;34.67;;;13.00;92.30;;;;;;5085988;28;20028;-77
2022/10/24 08:12:12;;;;;;;35.75;34.35;;;13.00;92.30;;;;;;5084385;28;20032;-77
2022/10/24 08:14:39;;;;;;;;;;;13.00;92.30;;;;;;5067610;28;20021;-77
2022/10/24 08:17:05;;;;;;;36.65;35.25;;;13.00;92.30;;;;;;5077199;28;19908;-77
2022/10/24 08:19:31;;;;;;;;;;;13.00;92.30;;;;;;5077875;28;20061;-77
2022/10/24 08:21:58;;;;;;;37.05;35.65;;;13.00;92.30;;;;;;5078734;28;20518;-76
2022/10/24 08:24:24;;;;;;;35.58;34.17;;;13.10;92.30;;;;;;5076548;28;20020;-76
2022/10/24 08:26:49;;;;;;;37.42;35.95;;;13.10;92.30;;;;;;5080745;28;20457;-77
2022/10/24 08:29:21;;;;;;;37.28;35.78;;;13.10;92.30;;;;;;5084205;28;20371;-76
2022/10/24 08:31:51;;;;;;;38.33;36.83;;;13.10;92.30;;;;;;5082742;28;20030;-76
2022/10/24 08:34:18;;;;;;;37.17;35.67;;;13.20;92.30;;;;;;5080965;28;20024;-77
2022/10/24 08:36:44;;;;;;;34.88;33.47;;;13.10;92.30;;;;;;5080615;28;20024;-73
2022/10/24 08:39:10;;;;;;;;;;;13.20;92.40;;;;;;5081055;28;20077;-76
2022/10/24 08:41:45;;;;;;;35.45;34.05;;;13.30;92.40;;;;;;5083205;28;19934;-77
2022/10/24 08:44:31;;;;;;;34.70;33.40;;;13.30;92.40;;;;;;5080147;28;20016;-75
2022/10/24 08:47:08;;;;;;;35.60;34.20;;;13.40;92.40;;;;;;5082908;28;20519;-77
2022/10/24 08:49:43;;;;;;;34.15;32.85;;;13.50;92.40;;;;;;5082760;28;20023;-78
2022/10/24 08:52:42;;;;;;;33.55;32.25;;;13.50;92.40;;;;;;5081454;28;20108;-76
2022/10/24 08:55:19;;;;;;;30.25;29.05;;;13.60;92.40;;;;;;5082321;28;20017;-77
2022/10/24 08:57:48;;;;;;;;;;;13.80;92.50;;;;;;5083291;28;20020;-77
2022/10/24 09:00:21;;;;;;;31.95;30.75;;;13.80;92.40;;;;;;5075533;28;20045;-75
2022/10/24 09:03:00;;;;;;;30.33;29.13;;;14.00;92.30;;;;;;5092604;28;20145;-76
2022/10/24 09:05:32;;;;;;;30.27;29.08;;;14.00;92.30;;;;;;5092307;28;20032;-76
2022/10/24 09:08:14;;;;;;;28.80;27.70;;;14.10;92.40;;;;;;5092386;28;20024;-75
2022/10/24 09:10:58;;;;;;;25.85;24.85;;;14.30;92.50;;;;;;5091859;28;20111;-75
2022/10/24 09:13:26;;;;;;;16.38;15.68;;;14.60;92.80;;;;;;5082555;28;20024;-76
2022/10/24 09:15:53;;;;;;;16.55;15.85;;;15.30;93.20;;;;;;5071619;28;20597;-75
2022/10/24 09:18:21;;;;;;;16.10;15.40;;;15.90;93.00;;;;;;5079997;28;20052;-76
2022/10/24 09:20:48;;;;;;;10.00;9.50;;;16.40;92.90;;;;;;5079419;28;20035;-74
2022/10/24 09:23:16;;;;;;;12.13;11.63;;;17.20;93.20;;;;;;5078571;28;20494;-74
2022/10/24 09:25:46;;;;;;;14.02;13.43;;;17.70;92.50;;;;;;5079769;28;20052;-75
2022/10/24 09:28:13;;;;;;;12.02;11.52;;;17.70;92.10;;;;;;5081272;28;20036;-75
2022/10/24 09:30:39;;;;;;;;;;;17.60;92.00;;;;;;5066566;28;20031;-75
2022/10/24 09:33:23;;;;;;;5.28;4.97;;;17.80;92.70;;;;;;5082869;28;19981;-74
2022/10/24 09:35:51;;;;;;;3.92;3.63;;;18.60;93.20;;;;;;5085920;28;20477;-74
2022/10/24 09:38:27;;;;;;;3.13;2.92;;;19.60;93.40;;;;;;5080836;28;20058;-74
2022/10/24 09:40:55;;;;;;;2.95;2.75;;;20.50;92.90;;;;;;5082816;28;20024;-74
2022/10/24 09:43:42;;;;;;;2.92;2.72;;;21.00;92.50;;;;;;5069476;28;20032;-74
2022/10/24 09:46:14;;;;;;;1.70;1.60;;;21.00;92.10;;;;;;5082764;28;20020;-74
2022/10/24 09:49:17;;;;;;;1.90;1.80;;;21.00;91.90;;;;;;5078215;28;20067;-74
2022/10/24 09:52:05;;;;;;;5.60;5.30;;;20.40;91.50;;;;;;5078076;28;20021;-73
2022/10/24 09:54:33;;;;;;;7.18;6.78;;;19.80;91.60;;;;;;5075724;28;20029;-74
2022/10/24 09:57:11;;;;;;;6.50;6.10;;;19.30;91.80;;;;;;5074962;28;20036;-74
2022/10/24 09:59:59;;;;;;;7.53;7.13;;;19.00;92.00;;;;;;5070755;28;20032;-75
2022/10/24 10:02:33;;;;;;;9.05;8.65;;;18.80;92.20;;;;;;5071585;28;20032;-76
2022/10/24 10:05:05;;;;;;;8.45;8.05;;;18.60;92.30;;;;;;5087376;28;20031;-74
2022/10/24 10:07:31;;;;;;;8.75;8.35;;;18.50;92.40;;;;;;5090421;28;20085;-74
2022/10/24 10:10:01;;;;;;;10.05;9.55;;;18.50;92.50;;;;;;5090231;28;20046;-74
2022/10/24 10:12:39;;;;;;;7.32;6.93;;;18.60;92.60;;;;;;5089887;28;20212;-73
2022/10/24 10:15:23;;;;;;;8.25;7.85;;;18.70;92.60;;;;;;5089956;28;20043;-74
2022/10/24 10:17:51;;;;;;;9.73;9.23;;;18.70;92.40;;;;;;5089456;28;20032;-74
2022/10/24 10:20:39;;;;;;;9.40;8.90;;;18.60;92.10;;;;;;5089863;28;20424;-74
2022/10/24 10:23:27;;;;;;;10.73;10.23;;;18.30;92.00;;;;;;5089498;28;20036;-75
2022/10/24 10:26:18;;;;;;;9.48;8.98;;;18.00;92.10;;;;;;5089646;28;20036;-75
2022/10/24 10:28:55;;;;;;;8.52;8.13;;;18.10;92.60;;;;;;5089648;28;20030;-74
2022/10/24 10:31:43;;;;;;;7.22;6.82;;;18.40;92.60;;;;;;5089790;28;20145;-77
2022/10/24 10:34:15;;;;;;;9.65;9.18;;;18.50;92.40;;;;;;5089372;28;20035;-76
2022/10/24 10:37:21;;;;;;;8.60;8.20;;;18.40;92.10;;;;;;5088315;28;20039;-72
2022/10/24 10:40:01;;;;;;;7.38;6.97;;;18.20;92.00;;;;;;5089400;28;20052;-75
2022/10/24 10:42:54;;;;;;;7.80;7.40;;;18.00;92.10;;;;;;5088995;28;20590;-73
2022/10/24 10:45:55;;;;;;;5.40;5.10;;;18.00;92.30;;;;;;5087579;28;20028;-73
2022/10/24 10:48:31;;;;;;;5.32;5.03;;;18.00;92.50;;;;;;5085341;28;20071;-74
2022/10/24 10:51:23;;;;;;;5.50;5.20;;;18.30;92.70;;;;;;5089436;28;20034;-75
2022/10/24 10:54:16;;;;;;;5.50;5.20;;;18.60;92.70;;;;;;5089277;28;20052;-76
2022/10/24 10:56:53;;;;;;;5.30;5.00;;;18.80;92.60;;;;;;5089240;28;20050;-75
2022/10/24 10:59:34;;;;;;;4.95;4.65;;;19.10;92.80;;;;;;5090535;28;20032;-75
2022/10/24 11:02:12;;;;;;;3.53;3.28;;;19.50;92.80;;;;;;5077683;28;20036;-76
2022/10/24 11:04:51;;;;;;;2.70;2.50;;;19.90;92.80;;;;;;5076471;28;20056;-74
2022/10/24 11:07:37;;;;;;;2.97;2.78;;;20.10;92.60;;;;;;5080540;28;20032;-75
2022/10/24 11:10:11;;;;;;;4.43;4.13;;;20.00;92.30;;;;;;5076581;28;20013;-73
2022/10/24 11:12:42;;;;;;;2.90;2.70;;;20.20;92.80;;;;;;5079634;28;20048;-74
2022/10/24 11:15:20;;;;;;;0.57;0.57;;;21.30;93.90;;;;;;5069608;28;20023;-74
2022/10/24 11:18:18;;;;;;;0.35;0.35;;;23.00;94.00;;;;;;5071876;28;20033;-74
2022/10/24 11:20:56;;;;;;;0.10;0.10;;;23.80;93.20;;;;;;5068001;28;20033;-75
2022/10/24 11:23:28;;;;;;;0.00;0.00;;;24.30;92.90;;;;;;5067912;28;20028;-76
2022/10/24 11:25:54;;;;;;;0.00;0.00;;;24.60;92.60;;;;;;5067930;28;20044;-76
2022/10/24 11:28:38;;;;;;;0.00;0.00;;;24.20;91.90;;;;;;5068662;28;20051;-77
2022/10/24 11:31:17;;;;;;;0.20;0.20;;;23.40;91.50;;;;;;5064438;28;20484;-75
2022/10/24 11:34:09;;;;;;;0.82;0.82;;;22.40;91.40;;;;;;5064359;28;20052;-74
2022/10/24 11:36:38;;;;;;;0.68;0.68;;;21.50;92.30;;;;;;5045851;28;20064;-76
2022/10/24 11:39:29;;;;;;;0.30;0.30;;;22.00;93.80;;;;;;5048060;28;20029;-75
2022/10/24 11:41:57;;;;;;;0.00;0.00;;;23.10;94.10;;;;;;5067641;28;20397;-75
2022/10/24 11:44:39;;;;;;;0.00;0.00;;;23.70;93.10;;;;;;5051548;28;20047;-75
2022/10/24 11:47:32;;;;;;;0.00;0.00;;;23.40;92.20;;;;;;5053076;28;20044;-74
2022/10/24 11:50:16;;;;;;;0.00;0.00;;;22.60;91.80;;;;;;5060654;28;20017;-74
2022/10/24 11:52:45;;;;;;;0.00;0.00;;;21.80;91.80;;;;;;5062920;28;20052;-75
2022/10/24 11:55:18;;;;;;;0.00;0.00;;;21.30;92.10;;;;;;5067875;28;20012;-75
2022/10/24 11:57:49;;;;;;;0.20;0.20;;;20.70;92.00;;;;;;5068606;28;20021;-75
2022/10/24 12:00:20;;;;;;;0.00;0.00;;;20.10;92.30;;;;;;5067006;28;20017;-73
2022/10/24 12:03:01;;;;;;;0.00;0.00;;;20.10;93.10;;;;;;5067253;28;20066;-74
2022/10/24 12:05:45;;;;;;;0.00;0.00;;;19.80;92.50;;;;;;5067813;28;20021;-75
2022/10/24 12:08:22;;;;;;;0.10;0.10;;;19.30;92.30;;;;;;5067940;28;20016;-73
2022/10/24 12:11:13;;;;;;;0.10;0.10;;;18.80;92.40;;;;;;5067701;28;20131;-74
2022/10/24 12:14:01;;;;;;;0.10;0.10;;;18.40;92.70;;;;;;5067293;28;20080;-75
2022/10/24 12:16:32;;;;;;;0.10;0.10;;;18.30;93.00;;;;;;5067607;28;20070;-74
2022/10/24 12:19:02;;;;;;;0.10;0.10;;;18.30;92.90;;;;;;5067673;28;20063;-75
2022/10/24 12:21:36;;;;;;;0.10;0.10;;;18.30;92.70;;;;;;5066920;28;20035;-75
2022/10/24 12:24:03;;;;;;;0.20;0.20;;;18.20;92.70;;;;;;5067680;28;20048;-75
2022/10/24 12:26:30;;;;;;;0.20;0.20;;;18.20;92.70;;;;;;5055806;28;20061;-74
2022/10/24 12:29:17;;;;;;;0.20;0.20;;;18.30;92.70;;;;;;5058119;28;20603;-74
2022/10/24 12:31:43;;;;;;;0.30;0.30;;;18.30;92.50;;;;;;5057639;28;20025;-74
2022/10/24 12:34:15;;;;;;;0.40;0.40;;;18.20;92.40;;;;;;5058749;28;20411;-74
2022/10/24 12:37:02;;;;;;;0.40;0.40;;;18.20;92.50;;;;;;5058623;28;20430;-74
2022/10/24 12:39:40;;;;;;;0.40;0.40;;;18.20;92.60;;;;;;5056797;28;20501;-75
2022/10/24 12:42:19;;;;;;;0.90;0.90;;;18.30;92.60;;;;;;5056621;28;20108;-74
2022/10/24 12:45:08;;;;;;;0.90;0.90;;;18.40;92.60;;;;;;5058160;28;20021;-74
2022/10/24 12:47:42;;;;;;;0.55;0.55;;;18.50;92.70;;;;;;5054546;28;20039;-74
2022/10/24 12:50:23;;;;;;;0.40;0.40;;;18.90;92.90;;;;;;5056566;28;20026;-75
2022/10/24 12:53:01;;;;;;;0.22;0.22;;;19.30;92.90;;;;;;5052614;28;20026;-75
2022/10/24 12:55:35;;;;;;;0.20;0.20;;;19.50;92.60;;;;;;5060593;28;20029;-75
2022/10/24 12:58:21;;;;;;;0.40;0.40;;;19.50;92.30;;;;;;5057124;28;20028;-75